Latest Weather Observations for Learmonth

IDW60801

Issued at 8:33 pm WST Monday 23 January 2017 (issued every 30 minutes, with the page automatically refreshed every 10 minutes)

About weather observations | Map of weather stations | Latest weather observations for WA | Other Formats
Station Details ID: 005007 Name: LEARMONTH AIRPORT Lat: -22.24 Lon: 114.10 Height: 5.0 m
Data from the previous 72 hours. | See also: Recent months at Learmonth
Date/Time
WST
Temp
°C
App
Temp
°C
Dew
Point
°C
Rel
Hum
%
Delta-T
°C
Wind Press
QNH
hPa
Press
MSL
hPa
Rain since
9am
mm
Dir  Spd
km/h
Gust
km/h
Spd
kts
Gust
kts
23/08:30pm 26.8 23.5 16.9 54 6.2 W 30 39 16 21 1006.4 - 0.0
23/08:00pm 26.5 24.0 18.0 59 5.4 W 28 41 15 22 1006.1 - 0.0
23/07:30pm 26.6 24.0 18.6 61 5.1 W 30 39 16 21 1005.6 - 0.0
23/07:00pm 26.9 24.0 18.8 61 5.2 W 32 39 17 21 1005.1 - 0.0
23/06:30pm 28.6 25.4 18.7 55 6.4 W 33 43 18 23 1004.8 - 0.0
23/06:00pm 30.4 27.3 18.5 49 7.7 W 32 41 17 22 1004.5 1004.4 0.0
23/05:30pm 31.7 28.4 18.4 45 8.6 W 33 43 18 23 1004.1 - 0.0
23/05:00pm 33.1 29.3 18.0 40 9.7 W 35 44 19 24 1003.9 - 0.0
23/04:30pm 34.1 30.3 17.1 36 10.9 W 33 43 18 23 1004.0 - 0.0
23/04:00pm 36.5 32.5 16.1 29 13.0 WNW 32 41 17 22 1004.1 - 0.0
23/03:30pm 38.2 35.3 12.9 22 15.5 WNW 20 33 11 18 1004.0 - 0.0
23/03:00pm 38.9 36.4 8.0 15 17.7 E 11 22 6 12 1004.4 1004.3 0.0
23/02:30pm 38.1 36.1 10.3 18 16.4 ENE 11 15 6 8 1004.8 - 0.0
23/02:00pm 36.8 35.0 12.1 22 14.8 NNE 13 17 7 9 1005.3 - 0.0
23/01:30pm 35.9 34.0 13.1 25 13.9 NE 15 20 8 11 1005.8 - 0.0
23/01:00pm 35.1 32.8 13.0 26 13.4 NE 17 20 9 11 1006.3 - 0.0
23/12:30pm 33.0 31.3 13.5 30 11.8 ENE 15 19 8 10 1006.6 - 0.0
23/12:00pm 33.5 31.7 14.5 31 11.7 ESE 17 28 9 15 1007.0 1006.9 0.0
23/11:30am 32.6 29.4 12.0 28 12.2 SSE 20 32 11 17 1007.3 - 0.0
23/11:00am 32.1 28.7 12.4 30 11.7 SSE 22 32 12 17 1007.7 - 0.0
23/10:30am 30.2 26.2 13.1 35 10.2 SE 26 32 14 17 1008.0 - 0.0
23/10:00am 28.9 26.2 13.4 38 9.2 SSE 20 30 11 16 1008.3 - 0.0
23/09:30am 28.0 25.2 14.2 42 8.3 S 22 32 12 17 1008.6 - 0.0
23/09:00am 26.0 23.4 14.9 50 6.7 S 22 32 12 17 1009.0 1008.9 0.0
23/08:30am 25.2 22.3 15.1 53 6.1 S 24 32 13 17 1009.2 - 0.0
23/08:00am 23.7 20.3 15.8 61 4.8 SSW 28 33 15 18 1009.3 - 0.0
23/07:30am 22.3 19.1 16.4 69 3.6 SSW 28 35 15 19 1009.4 - 0.0
23/07:00am 21.5 19.3 16.9 75 2.8 SSW 24 35 13 19 1009.3 - 0.0
23/06:30am 20.6 18.5 17.2 81 2.1 SSW 24 32 13 17 1009.1 - 0.0
23/06:00am 20.4 18.4 17.5 83 1.8 SSW 24 30 13 16 1008.9 1008.8 0.0
23/05:30am 20.6 19.2 18.0 85 1.6 SSW 22 30 12 16 1008.6 - 0.0
23/05:00am 20.7 19.5 18.3 86 1.5 SSW 22 32 12 17 1008.4 - 0.0
23/04:30am 21.1 19.9 18.4 84 1.7 SW 22 30 12 16 1008.2 - 0.0
23/04:00am 21.2 20.0 18.3 83 1.8 SW 22 30 12 16 1008.0 - 0.0
23/03:30am 21.4 19.7 18.2 82 2.0 SW 24 35 13 19 1008.1 - 0.0
23/03:00am 21.8 19.5 18.5 81 2.1 SW 28 35 15 19 1008.1 1008.0 0.0
23/02:30am 21.9 20.0 18.6 81 2.1 SW 26 35 14 19 1008.2 - 0.0
23/02:00am 22.0 20.6 18.7 81 2.1 SW 24 32 13 17 1008.2 - 0.0
23/01:30am 22.3 20.6 19.0 81 2.1 SW 26 33 14 18 1008.3 - 0.0
23/01:00am 22.5 21.3 19.2 81 2.1 SW 24 32 13 17 1008.5 - 0.0
23/12:30am 22.9 20.8 19.0 78 2.5 SW 28 37 15 20 1008.6 - 0.0
23/12:00am 23.1 21.0 19.0 78 2.6 WSW 28 35 15 19 1008.8 1008.7 0.0
 
Date/Time
WST
Temp
°C
App
Temp
°C
Dew
Point
°C
Rel
Hum
%
Delta-T
°C
Wind Press
QNH
hPa
Press
MSL
hPa
Rain since
9am
mm
Dir  Spd
km/h
Gust
km/h
Spd
kts
Gust
kts
22/11:30pm 23.2 21.9 19.1 78 2.6 WSW 24 32 13 17 1009.0 - 0.0
22/11:00pm 23.2 22.4 19.3 79 2.5 WSW 22 32 12 17 1009.1 - 0.0
22/10:30pm 23.4 22.2 19.3 78 2.6 WSW 24 33 13 18 1009.1 - 0.0
22/10:00pm 23.5 22.1 18.9 75 2.9 WSW 24 30 13 16 1009.1 - 0.0
22/09:30pm 23.6 21.5 18.9 75 3.0 WSW 28 37 15 20 1009.0 - 0.0
22/09:00pm 23.7 22.5 18.3 71 3.4 WSW 22 32 12 17 1008.9 1008.8 0.0
22/08:30pm 24.0 21.3 18.5 71 3.5 WSW 30 37 16 20 1008.6 - 0.0
22/08:00pm 24.5 22.8 18.2 68 4.0 WSW 24 32 13 17 1008.4 - 0.0
22/07:30pm 24.9 22.5 17.4 63 4.7 WSW 26 32 14 17 1008.1 - 0.0
22/07:00pm 25.9 23.3 16.9 57 5.6 WSW 26 35 14 19 1008.0 - 0.0
22/06:30pm 27.2 24.1 16.6 52 6.6 WSW 28 39 15 21 1007.5 - 0.0
22/06:00pm 28.3 25.1 16.4 48 7.4 WSW 28 37 15 20 1007.2 1007.1 0.0
22/05:30pm 29.0 25.8 16.3 46 7.9 WSW 28 35 15 19 1007.0 - 0.0
22/05:00pm 29.5 25.6 16.4 45 8.2 W 32 39 17 21 1006.8 - 0.0
22/04:30pm 29.8 26.3 16.6 45 8.3 W 30 43 16 23 1007.0 - 0.0
22/04:00pm 30.2 27.2 16.7 44 8.5 W 28 41 15 22 1007.1 - 0.0
22/03:30pm 30.7 28.6 16.1 41 9.1 WSW 22 37 12 20 1007.3 - 0.0
22/03:00pm 31.2 28.3 16.0 40 9.5 WSW 26 35 14 19 1007.5 1007.4 0.0
22/02:30pm 30.6 28.0 15.8 40 9.2 W 24 35 13 19 1007.8 - 0.0
22/02:00pm 32.3 29.7 15.0 35 10.7 WSW 22 28 12 15 1007.9 - 0.0
22/01:30pm 31.2 28.7 15.1 37 9.9 WNW 22 26 12 14 1008.1 - 0.0
22/01:00pm 31.0 27.9 15.7 39 9.5 W 26 30 14 16 1008.4 - 0.0
22/12:30pm 30.7 28.7 15.5 39 9.4 W 20 30 11 16 1008.6 - 0.0
22/12:00pm 31.8 30.3 15.3 37 10.2 WSW 17 24 9 13 1008.8 1008.7 0.0
22/11:30am 30.2 28.9 15.9 42 8.9 W 17 30 9 16 1009.0 - 0.0
22/11:00am 30.0 29.1 15.8 42 8.8 W 15 22 8 12 1009.3 - 0.0
22/10:30am 29.0 28.2 16.1 45 8.0 W 15 19 8 10 1009.5 - 0.0
22/10:00am 28.4 26.7 16.3 47 7.5 W 20 28 11 15 1009.8 - 0.0
22/09:30am 27.8 26.3 16.3 49 7.1 WNW 19 24 10 13 1009.9 - 0.0
22/09:00am 27.6 26.2 16.5 50 6.9 WNW 19 22 10 12 1010.1 1010.0 0.0
22/08:30am 26.6 26.1 17.0 55 6.0 WSW 15 22 8 12 1010.3 - 0.0
22/08:00am 25.2 25.0 17.7 63 4.7 WSW 15 20 8 11 1010.4 - 0.0
22/07:30am 23.6 24.7 18.0 71 3.5 SW 9 11 5 6 1010.4 - 0.0
22/07:00am 22.2 25.1 18.2 78 2.5 CALM 0 0 0 0 1010.4 - 0.0
22/06:30am 20.2 22.6 17.1 82 1.9 CALM 0 0 0 0 1010.0 - 0.0
22/06:00am 19.3 21.6 16.8 85 1.5 CALM 0 0 0 0 1009.6 1009.5 0.0
22/05:30am 20.1 22.8 17.8 86 1.4 CALM 0 6 0 3 1009.3 - 0.0
22/05:00am 20.1 21.3 17.3 84 1.7 SSW 7 9 4 5 1009.1 - 0.0
22/04:30am 20.6 21.1 17.5 82 1.9 SSW 11 13 6 7 1008.8 - 0.0
22/04:00am 21.1 21.3 17.7 81 2.1 SW 13 17 7 9 1008.6 - 0.0
22/03:30am 21.3 21.6 17.9 81 2.1 SW 13 19 7 10 1008.5 - 0.0
22/03:00am 21.4 21.7 17.9 80 2.2 SW 13 17 7 9 1008.4 1008.3 0.0
22/02:30am 22.1 22.4 17.9 77 2.6 SW 13 17 7 9 1008.4 - 0.0
22/02:00am 22.4 21.6 18.1 76 2.7 WSW 19 24 10 13 1008.3 - 0.0
22/01:30am 22.4 21.9 17.9 75 2.8 WSW 17 20 9 11 1008.5 - 0.0
22/01:00am 22.4 21.4 17.9 75 2.8 SW 20 24 11 13 1008.5 - 0.0
22/12:30am 22.6 21.2 18.0 75 2.9 SW 22 28 12 15 1008.7 - 0.0
22/12:00am 22.7 21.9 17.9 74 3.0 SW 19 26 10 14 1008.8 1008.7 0.0
 
Date/Time
WST
Temp
°C
App
Temp
°C
Dew
Point
°C
Rel
Hum
%
Delta-T
°C
Wind Press
QNH
hPa
Press
MSL
hPa
Rain since
9am
mm
Dir  Spd
km/h
Gust
km/h
Spd
kts
Gust
kts
21/11:30pm 22.8 21.4 18.0 74 3.0 SW 22 30 12 16 1009.1 - 0.0
21/11:00pm 23.1 21.3 17.8 72 3.3 SW 24 33 13 18 1009.3 - 0.0
21/10:30pm 23.3 21.4 17.7 71 3.5 SW 24 33 13 18 1008.9 - 0.0
21/10:00pm 23.5 20.9 17.9 71 3.5 WSW 28 35 15 19 1008.7 - 0.0
21/09:30pm 23.5 21.7 17.9 71 3.5 SW 24 30 13 16 1008.5 - 0.0
21/09:00pm 23.7 22.0 18.0 70 3.6 WSW 24 33 13 18 1008.2 1008.1 0.0
21/08:30pm 23.8 21.2 17.9 69 3.7 SW 28 37 15 20 1007.8 - 0.0
21/08:00pm 24.0 21.4 17.9 68 3.8 SW 28 39 15 21 1007.6 - 0.0
21/07:30pm 24.3 21.8 18.1 68 3.9 SW 28 37 15 20 1007.4 - 0.0
21/07:00pm 24.6 21.2 18.1 67 4.1 WSW 33 44 18 24 1007.1 - 0.0
21/06:30pm 25.2 21.4 18.2 65 4.4 WSW 35 43 19 23 1006.7 - 0.0
21/06:00pm 26.0 22.9 18.3 62 4.9 WSW 32 41 17 22 1006.5 1006.4 0.0
21/05:30pm 26.4 22.5 17.9 59 5.4 WSW 35 43 19 23 1006.2 - 0.0
21/05:00pm 27.6 24.1 17.8 55 6.2 WSW 33 43 18 23 1005.9 - 0.0
21/04:30pm 27.9 24.0 17.8 54 6.4 WSW 35 44 19 24 1005.7 - 0.0
21/04:00pm 28.0 24.1 17.9 54 6.4 WSW 35 46 19 25 1005.5 - 0.0
21/03:30pm 29.0 25.0 17.5 49 7.3 WSW 35 44 19 24 1005.5 - 0.0
21/03:18pm 29.1 24.9 18.0 51 7.1 W 37 46 20 25 1005.4 - 0.0
21/03:00pm 30.6 26.4 17.2 44 8.5 WSW 35 46 19 25 1005.5 1005.4 0.0
21/02:30pm 30.6 26.7 17.8 46 8.2 WSW 35 50 19 27 1005.5 - 0.0
21/02:00pm 30.9 27.2 17.4 44 8.6 WSW 33 43 18 23 1005.7 - 0.0
21/01:30pm 31.1 27.7 17.7 44 8.6 WSW 32 43 17 23 1005.8 - 0.0
21/01:00pm 30.6 27.3 18.0 47 8.1 WSW 32 44 17 24 1006.2 - 0.0
21/12:30pm 31.0 27.5 17.5 44 8.6 WSW 32 46 17 25 1006.2 - 0.0
21/12:00pm 30.0 26.6 17.8 48 7.8 WSW 32 41 17 22 1006.3 1006.2 0.0
21/11:30am 28.9 25.6 17.9 51 7.0 WSW 32 41 17 22 1006.6 - 0.0
21/11:00am 28.4 25.5 17.9 53 6.7 WSW 30 39 16 21 1006.9 - 0.0
21/10:30am 28.1 25.7 18.2 55 6.3 W 28 35 15 19 1007.1 - 0.0
21/10:00am 28.2 25.9 18.4 55 6.3 W 28 39 15 21 1007.2 - 0.0
21/09:30am 28.0 25.5 18.1 55 6.3 WSW 28 35 15 19 1007.2 - 0.0
21/09:00am 26.7 24.6 18.0 59 5.5 WSW 26 33 14 18 1007.4 1007.3 0.0
21/08:30am 26.2 24.7 18.5 62 4.9 WSW 24 33 13 18 1007.3 - 0.0
21/08:00am 24.8 23.0 18.8 69 3.8 WSW 26 35 14 19 1007.0 - 0.0
21/07:30am 25.0 23.7 19.1 70 3.8 WSW 24 32 13 17 1007.1 - 0.0
21/07:00am 23.7 22.1 19.2 76 2.9 WSW 26 35 14 19 1006.7 - 0.0
21/06:30am 23.1 22.3 19.3 79 2.4 WSW 22 28 12 15 1006.5 - 0.0
21/06:00am 22.6 22.2 19.3 81 2.1 WSW 20 32 11 17 1006.2 1006.1 0.0
21/05:30am 22.6 22.1 19.1 80 2.2 WSW 20 32 11 17 1005.9 - 0.0
21/05:00am 22.5 21.6 19.0 80 2.2 WSW 22 32 12 17 1005.6 - 0.0
21/04:30am 22.4 21.9 19.1 81 2.1 WSW 20 26 11 14 1005.6 - 0.0
21/04:00am 22.5 21.6 19.0 80 2.2 SW 22 32 12 17 1005.3 - 0.0
21/03:30am 22.6 21.5 18.6 78 2.5 WSW 22 32 12 17 1005.1 - 0.0
21/03:00am 22.6 21.1 18.5 77 2.6 WSW 24 32 13 17 1005.4 1005.3 0.0
21/02:30am 22.7 21.6 18.7 78 2.5 WSW 22 30 12 16 1005.5 - 0.0
21/02:00am 22.7 21.0 18.9 79 2.4 WSW 26 35 14 19 1005.6 - 0.0
21/01:30am 22.8 21.1 19.0 79 2.4 SW 26 35 14 19 1005.9 - 0.0
21/01:00am 23.0 20.5 18.9 78 2.6 SW 30 39 16 21 1006.0 - 0.0
21/12:30am 23.0 20.6 19.1 78 2.5 WSW 30 39 16 21 1006.0 - 0.0
21/12:00am 23.2 21.3 19.3 79 2.5 SW 28 35 15 19 1006.3 1006.2 0.0
 
Date/Time
WST
Temp
°C
App
Temp
°C
Dew
Point
°C
Rel
Hum
%
Delta-T
°C
Wind Press
QNH
hPa
Press
MSL
hPa
Rain since
9am
mm
Dir  Spd
km/h
Gust
km/h
Spd
kts
Gust
kts
20/11:30pm 23.3 21.4 19.4 79 2.5 SW 28 35 15 19 1006.1 - 0.0
20/11:00pm 23.4 22.3 19.5 79 2.5 SW 24 35 13 19 1006.1 - 0.0
20/10:30pm 23.6 21.4 19.6 78 2.6 SW 30 39 16 21 1006.0 - 0.0
20/10:00pm 23.8 21.0 19.1 75 3.0 SW 32 37 17 20 1005.7 - 0.0
20/09:30pm 23.9 21.6 18.5 72 3.4 SW 28 37 15 20 1005.4 - 0.0
20/09:00pm 24.1 20.6 17.9 68 3.9 SW 33 44 18 24 1005.2 1005.1 0.0

Other Formats:

Comma delimited format used in spreadsheet applications
http://www.bom.gov.au/fwo/IDW60801/IDW60801.94302.axf

JavaScript Object Notation format (JSON) in row-major order
http://www.bom.gov.au/fwo/IDW60801/IDW60801.94302.json